PWSweather.com
Personal Weather Stations
Station Observations
HELOTES
Helotes Park Terrace, Helotes, TX 78023

Helotes Park TerraceHelotes, TX 78023

Lat: 29.57, Lon: -98.68

Elevation: 1060

Station Type: Ambient Weather WS-1090

Latest ConditionsUpdated 8:20:17 PM CDT Wednesday, Jun 29, 2016
Currently Today's Max Today's Min Today's Average
Temperature 85.1°F29.5°C 91.6°F33.1°C 68.2°F20.1°C 78.8°F26.0°C
Dew Point 69.2°F20.7°C 76.2°F24.6°C 64.8°F18.2°C 69.8°F21.0°C
Winds 0.4 mph ESE0.6 kmh ESE 2.0 mph N3.2 kmh N - 0.4 mph 0.6 kmh
Wind Gusts 1.8 mph2.9 kmh 4.0 mph6.4 kmh - -
Humidity 59% 90% 50% 76%
Pressure 29.86 in1011.2 mb 29.98 in1015.2 mb 29.84 in1010.5 mb -
Precipitation - 0.05 in1.3 mm - -
Hour Temp Dew Point Humidity Winds Wind Gusts Pressure Precip Precip Rate Daily Precip Total
08:20 PM 85.1°F29.5°C 69.2°F20.7°C 59% 0.4 mph ESE0.6 kmh ESE 1.8 mph2.9 kmh 29.86 in1011.2 mb 0.00 in0.0 mm 0.00 in0.0 mm 0.05 in1.3 mm
08:15 PM 85.3°F29.6°C 69.4°F20.8°C 59% 1.7 mph N2.7 kmh N 1.8 mph2.9 kmh 29.86 in1011.2 mb 0.00 in0.0 mm 0.00 in0.0 mm 0.05 in1.3 mm
08:10 PM 85.7°F29.8°C 69.8°F21.0°C 59% 1.8 mph NE2.9 kmh NE 1.8 mph2.9 kmh 29.86 in1011.2 mb 0.00 in0.0 mm 0.00 in0.0 mm 0.05 in1.3 mm
08:05 PM 86.0°F30.0°C 69.5°F20.8°C 58% 0.7 mph NNW1.1 kmh NNW 2.2 mph3.5 kmh 29.86 in1011.2 mb 0.00 in0.0 mm 0.00 in0.0 mm 0.05 in1.3 mm
08:01 PM 86.4°F30.2°C 69.8°F21.0°C 58% 0.9 mph NNE1.4 kmh NNE 2.2 mph3.5 kmh 29.86 in1011.2 mb 0.00 in0.0 mm 0.00 in0.0 mm 0.05 in1.3 mm
07:55 PM 86.8°F30.4°C 70.2°F21.2°C 58% 1.0 mph N1.6 kmh N 2.2 mph3.5 kmh 29.86 in1011.2 mb 0.00 in0.0 mm 0.00 in0.0 mm 0.05 in1.3 mm
07:50 PM 86.9°F30.5°C 69.8°F21.0°C 57% Calm Calm 4.0 mph6.4 kmh 29.86 in1011.2 mb 0.00 in0.0 mm 0.00 in0.0 mm 0.05 in1.3 mm
07:45 PM 87.1°F30.6°C 70.0°F21.1°C 57% 1.3 mph E2.1 kmh E 4.0 mph6.4 kmh 29.86 in1011.2 mb 0.00 in0.0 mm 0.00 in0.0 mm 0.05 in1.3 mm
07:40 PM 87.5°F30.8°C 69.8°F21.0°C 56% 0.4 mph NNW0.6 kmh NNW 2.0 mph3.2 kmh 29.86 in1011.2 mb 0.00 in0.0 mm 0.00 in0.0 mm 0.05 in1.3 mm
07:35 PM 87.7°F30.9°C 69.5°F20.8°C 55% 1.5 mph 2.4 kmh 2.0 mph3.2 kmh 29.86 in1011.2 mb 0.00 in0.0 mm 0.00 in0.0 mm 0.05 in1.3 mm
07:30 PM 88.0°F31.1°C 69.3°F20.7°C 54% 0.6 mph NNE1.0 kmh NNE 1.6 mph2.6 kmh 29.86 in1011.2 mb 0.00 in0.0 mm 0.00 in0.0 mm 0.05 in1.3 mm
07:25 PM 88.2°F31.2°C 69.0°F20.6°C 53% 1.0 mph N1.6 kmh N 1.6 mph2.6 kmh 29.86 in1011.2 mb 0.00 in0.0 mm 0.00 in0.0 mm 0.05 in1.3 mm
07:20 PM 88.7°F31.5°C 69.9°F21.1°C 54% 1.3 mph NNE2.1 kmh NNE 1.3 mph2.1 kmh 29.86 in1011.2 mb 0.00 in0.0 mm 0.00 in0.0 mm 0.05 in1.3 mm
07:15 PM 89.1°F31.7°C 69.8°F21.0°C 53% Calm Calm 0.2 mph0.3 kmh 29.86 in1011.2 mb 0.00 in0.0 mm 0.00 in0.0 mm 0.05 in1.3 mm
07:10 PM 89.5°F31.9°C 69.5°F20.8°C 52% 0.2 mph W0.3 kmh W 0.9 mph1.4 kmh 29.85 in1010.8 mb 0.00 in0.0 mm 0.00 in0.0 mm 0.05 in1.3 mm
07:05 PM 89.8°F32.1°C 69.3°F20.7°C 51% 0.3 mph SW0.5 kmh SW 1.1 mph1.8 kmh 29.85 in1010.8 mb 0.00 in0.0 mm 0.00 in0.0 mm 0.05 in1.3 mm
07:00 PM 90.2°F32.3°C 69.6°F20.9°C 51% 0.4 mph 0.6 kmh 1.1 mph1.8 kmh 29.85 in1010.8 mb 0.00 in0.0 mm 0.00 in0.0 mm 0.05 in1.3 mm
06:55 PM 90.5°F32.5°C 69.4°F20.8°C 50% 0.3 mph SW0.5 kmh SW 2.5 mph4.0 kmh 29.85 in1010.8 mb 0.00 in0.0 mm 0.00 in0.0 mm 0.05 in1.3 mm
06:50 PM 90.7°F32.6°C 70.1°F21.2°C 51% Calm Calm 2.5 mph4.0 kmh 29.85 in1010.8 mb 0.00 in0.0 mm 0.00 in0.0 mm 0.05 in1.3 mm
06:45 PM 90.7°F32.6°C 70.1°F21.2°C 51% 0.4 mph WSW0.6 kmh WSW 2.5 mph4.0 kmh 29.85 in1010.8 mb 0.00 in0.0 mm 0.00 in0.0 mm 0.05 in1.3 mm
06:40 PM 90.7°F32.6°C 70.1°F21.2°C 51% 0.8 mph W1.3 kmh W 2.5 mph4.0 kmh 29.84 in1010.5 mb 0.00 in0.0 mm 0.00 in0.0 mm 0.05 in1.3 mm
06:35 PM 91.1°F32.8°C 70.9°F21.6°C 52% 1.1 mph 1.8 kmh 1.1 mph1.8 kmh 29.84 in1010.5 mb 0.00 in0.0 mm 0.00 in0.0 mm 0.05 in1.3 mm
06:30 PM 91.1°F32.8°C 71.5°F21.9°C 53% 0.2 mph S0.3 kmh S 1.1 mph1.8 kmh 29.84 in1010.5 mb 0.00 in0.0 mm 0.00 in0.0 mm 0.05 in1.3 mm
06:25 PM 91.3°F32.9°C 71.6°F22.0°C 53% Calm Calm 1.1 mph1.8 kmh 29.85 in1010.8 mb 0.00 in0.0 mm 0.00 in0.0 mm 0.05 in1.3 mm
06:20 PM 91.4°F33.0°C 71.3°F21.8°C 52% 0.7 mph SE1.1 kmh SE 1.1 mph1.8 kmh 29.85 in1010.8 mb 0.00 in0.0 mm 0.00 in0.0 mm 0.05 in1.3 mm
06:15 PM 91.6°F33.1°C 70.9°F21.6°C 51% 0.7 mph NNW1.1 kmh NNW 0.9 mph1.4 kmh 29.84 in1010.5 mb 0.00 in0.0 mm 0.00 in0.0 mm 0.05 in1.3 mm
06:10 PM 91.6°F33.1°C 70.9°F21.6°C 51% 0.7 mph WNW1.1 kmh WNW 1.1 mph1.8 kmh 29.85 in1010.8 mb 0.00 in0.0 mm 0.00 in0.0 mm 0.05 in1.3 mm
06:05 PM 91.6°F33.1°C 70.9°F21.6°C 51% 0.4 mph WSW0.6 kmh WSW 1.1 mph1.8 kmh 29.85 in1010.8 mb 0.02 in0.5 mm 0.00 in0.0 mm 0.05 in1.3 mm
06:00 PM 91.6°F33.1°C 72.0°F22.2°C 53% 0.4 mph NNW0.6 kmh NNW 1.1 mph1.8 kmh 29.84 in1010.5 mb 0.02 in0.5 mm 0.00 in0.0 mm 0.05 in1.3 mm
05:55 PM 91.6°F33.1°C 71.5°F21.9°C 52% 0.4 mph NW0.6 kmh NW 1.6 mph2.6 kmh 29.85 in1010.8 mb 0.02 in0.5 mm 0.00 in0.0 mm 0.05 in1.3 mm
05:50 PM 91.4°F33.0°C 71.3°F21.8°C 52% 0.9 mph NW1.4 kmh NW 1.6 mph2.6 kmh 29.85 in1010.8 mb 0.02 in0.5 mm 0.00 in0.0 mm 0.05 in1.3 mm
05:45 PM 91.4°F33.0°C 71.3°F21.8°C 52% 0.9 mph NE1.4 kmh NE 1.3 mph2.1 kmh 29.85 in1010.8 mb 0.02 in0.5 mm 0.00 in0.0 mm 0.05 in1.3 mm
05:40 PM 91.4°F33.0°C 71.3°F21.8°C 52% 0.7 mph NNW1.1 kmh NNW 3.1 mph5.0 kmh 29.85 in1010.8 mb 0.02 in0.5 mm 0.00 in0.0 mm 0.05 in1.3 mm
05:35 PM 91.4°F33.0°C 71.3°F21.8°C 52% 0.9 mph SSW1.4 kmh SSW 3.1 mph5.0 kmh 29.85 in1010.8 mb 0.02 in0.5 mm 0.00 in0.0 mm 0.05 in1.3 mm
05:30 PM 91.3°F32.9°C 71.6°F22.0°C 53% 1.1 mph W1.8 kmh W 2.0 mph3.2 kmh 29.85 in1010.8 mb 0.02 in0.5 mm 0.00 in0.0 mm 0.05 in1.3 mm
05:25 PM 91.1°F32.8°C 71.5°F21.9°C 53% 0.6 mph W1.0 kmh W 1.8 mph2.9 kmh 29.86 in1011.2 mb 0.02 in0.5 mm 0.00 in0.0 mm 0.05 in1.3 mm
05:20 PM 91.1°F32.8°C 71.5°F21.9°C 53% 1.3 mph S2.1 kmh S 1.8 mph2.9 kmh 29.86 in1011.2 mb 0.02 in0.5 mm 0.00 in0.0 mm 0.05 in1.3 mm
05:14 PM 90.9°F32.7°C 71.4°F21.9°C 53% 1.1 mph WSW1.8 kmh WSW 1.8 mph2.9 kmh 29.86 in1011.2 mb 0.02 in0.5 mm 0.00 in0.0 mm 0.05 in1.3 mm
05:10 PM 90.7°F32.6°C 71.7°F22.1°C 54% 0.4 mph NW0.6 kmh NW 1.8 mph2.9 kmh 29.86 in1011.2 mb 0.02 in0.5 mm 0.24 in6.1 mm 0.05 in1.3 mm
05:05 PM 90.5°F32.5°C 72.1°F22.3°C 55% 1.3 mph SSW2.1 kmh SSW 1.8 mph2.9 kmh 29.86 in1011.2 mb 0.00 in0.0 mm 0.00 in0.0 mm 0.03 in0.8 mm
05:00 PM 89.8°F32.1°C 72.0°F22.2°C 56% 1.4 mph N2.3 kmh N 1.8 mph2.9 kmh 29.86 in1011.2 mb 0.00 in0.0 mm 0.00 in0.0 mm 0.03 in0.8 mm
04:54 PM 89.3°F31.8°C 70.9°F21.6°C 55% 0.9 mph SW1.4 kmh SW 1.3 mph2.1 kmh 29.86 in1011.2 mb 0.00 in0.0 mm 0.00 in0.0 mm 0.03 in0.8 mm
04:49 PM 89.6°F32.0°C 71.3°F21.8°C 55% 0.4 mph NNW0.6 kmh NNW 1.6 mph2.6 kmh 29.87 in1011.5 mb 0.00 in0.0 mm 0.00 in0.0 mm 0.03 in0.8 mm
04:44 PM 90.2°F32.3°C 71.2°F21.8°C 54% 0.8 mph NW1.3 kmh NW 2.5 mph4.0 kmh 29.87 in1011.5 mb 0.00 in0.0 mm 0.00 in0.0 mm 0.03 in0.8 mm
04:39 PM 90.4°F32.4°C 71.4°F21.9°C 54% 1.5 mph NE2.4 kmh NE 3.1 mph5.0 kmh 29.87 in1011.5 mb 0.00 in0.0 mm 0.00 in0.0 mm 0.03 in0.8 mm
04:34 PM 90.7°F32.6°C 72.3°F22.4°C 55% 1.2 mph WNW1.9 kmh WNW 3.1 mph5.0 kmh 29.87 in1011.5 mb 0.00 in0.0 mm 0.00 in0.0 mm 0.03 in0.8 mm
04:29 PM 90.5°F32.5°C 72.6°F22.6°C 56% 2.0 mph N3.2 kmh N 2.7 mph4.3 kmh 29.87 in1011.5 mb 0.00 in0.0 mm 0.00 in0.0 mm 0.03 in0.8 mm
04:24 PM 90.4°F32.4°C 71.9°F22.2°C 55% 0.8 mph NNW1.3 kmh NNW 1.6 mph2.6 kmh 29.87 in1011.5 mb 0.00 in0.0 mm 0.00 in0.0 mm 0.03 in0.8 mm
04:19 PM 90.0°F32.2°C 72.7°F22.6°C 57% 0.9 mph NW1.4 kmh NW 1.8 mph2.9 kmh 29.87 in1011.5 mb 0.00 in0.0 mm 0.00 in0.0 mm 0.03 in0.8 mm
04:14 PM 89.6°F32.0°C 72.4°F22.4°C 57% 0.7 mph WNW1.1 kmh WNW 1.8 mph2.9 kmh 29.88 in1011.9 mb 0.00 in0.0 mm 0.00 in0.0 mm 0.03 in0.8 mm
04:10 PM 89.6°F32.0°C 72.9°F22.7°C 58% 0.9 mph WNW1.4 kmh WNW 1.6 mph2.6 kmh 29.88 in1011.9 mb 0.00 in0.0 mm 0.00 in0.0 mm 0.03 in0.8 mm
04:05 PM 89.6°F32.0°C 72.9°F22.7°C 58% 1.3 mph WSW2.1 kmh WSW 1.6 mph2.6 kmh 29.88 in1011.9 mb 0.00 in0.0 mm 0.00 in0.0 mm 0.03 in0.8 mm
04:00 PM 89.8°F32.1°C 72.0°F22.2°C 56% 0.4 mph WNW0.6 kmh WNW 1.6 mph2.6 kmh 29.88 in1011.9 mb 0.00 in0.0 mm 0.00 in0.0 mm 0.03 in0.8 mm
03:54 PM 89.6°F32.0°C 71.8°F22.1°C 56% 1.1 mph NNE1.8 kmh NNE 1.6 mph2.6 kmh 29.88 in1011.9 mb 0.00 in0.0 mm 0.00 in0.0 mm 0.03 in0.8 mm
03:49 PM 89.5°F31.9°C 71.6°F22.0°C 56% 0.4 mph N0.6 kmh N 1.3 mph2.1 kmh 29.88 in1011.9 mb 0.00 in0.0 mm 0.00 in0.0 mm 0.03 in0.8 mm
03:44 PM 88.9°F31.6°C 71.7°F22.1°C 57% Calm Calm 1.8 mph2.9 kmh 29.89 in1012.2 mb 0.00 in0.0 mm 0.00 in0.0 mm 0.03 in0.8 mm
03:39 PM 89.1°F31.7°C 71.9°F22.2°C 57% 1.1 mph SSE1.8 kmh SSE 2.0 mph3.2 kmh 29.88 in1011.9 mb 0.00 in0.0 mm 0.00 in0.0 mm 0.03 in0.8 mm
03:34 PM 88.9°F31.6°C 72.8°F22.7°C 59% 1.5 mph NE2.4 kmh NE 2.0 mph3.2 kmh 29.89 in1012.2 mb 0.00 in0.0 mm 0.00 in0.0 mm 0.03 in0.8 mm
03:29 PM 88.7°F31.5°C 73.2°F22.9°C 60% 1.8 mph SSW2.9 kmh SSW 2.2 mph3.5 kmh 29.89 in1012.2 mb 0.00 in0.0 mm 0.00 in0.0 mm 0.03 in0.8 mm
03:24 PM 88.6°F31.4°C 72.5°F22.5°C 59% 1.9 mph WNW3.1 kmh WNW 2.2 mph3.5 kmh 29.89 in1012.2 mb 0.00 in0.0 mm 0.00 in0.0 mm 0.03 in0.8 mm
03:19 PM 88.6°F31.4°C 73.0°F22.8°C 60% 0.6 mph ENE1.0 kmh ENE 2.0 mph3.2 kmh 29.89 in1012.2 mb 0.00 in0.0 mm 0.00 in0.0 mm 0.03 in0.8 mm
03:14 PM 88.6°F31.4°C 72.5°F22.5°C 59% 1.1 mph WSW1.8 kmh WSW 1.1 mph1.8 kmh 29.89 in1012.2 mb 0.00 in0.0 mm 0.00 in0.0 mm 0.03 in0.8 mm
03:09 PM 88.6°F31.4°C 73.0°F22.8°C 60% 0.9 mph WSW1.4 kmh WSW 1.6 mph2.6 kmh 29.89 in1012.2 mb 0.00 in0.0 mm 0.00 in0.0 mm 0.03 in0.8 mm
03:04 PM 88.6°F31.4°C 73.0°F22.8°C 60% 1.1 mph W1.8 kmh W 1.6 mph2.6 kmh 29.89 in1012.2 mb 0.00 in0.0 mm 0.00 in0.0 mm 0.03 in0.8 mm
03:00 PM 88.4°F31.3°C 72.8°F22.7°C 60% 0.8 mph W1.3 kmh W 1.1 mph1.8 kmh 29.90 in1012.5 mb 0.00 in0.0 mm 0.00 in0.0 mm 0.03 in0.8 mm
02:54 PM 88.2°F31.2°C 73.2°F22.9°C 61% 0.6 mph WSW1.0 kmh WSW 1.8 mph2.9 kmh 29.90 in1012.5 mb 0.00 in0.0 mm 0.00 in0.0 mm 0.03 in0.8 mm
02:49 PM 88.6°F31.4°C 73.4°F23.0°C 61% 1.8 mph WNW2.9 kmh WNW 1.8 mph2.9 kmh 29.90 in1012.5 mb 0.00 in0.0 mm 0.00 in0.0 mm 0.03 in0.8 mm
02:44 PM 88.9°F31.6°C 73.4°F23.0°C 60% 0.2 mph ENE0.3 kmh ENE 1.1 mph1.8 kmh 29.90 in1012.5 mb 0.00 in0.0 mm 0.00 in0.0 mm 0.03 in0.8 mm
02:39 PM 89.1°F31.7°C 74.0°F23.3°C 61% 0.3 mph NW0.5 kmh NW 2.0 mph3.2 kmh 29.90 in1012.5 mb 0.00 in0.0 mm 0.00 in0.0 mm 0.03 in0.8 mm
02:34 PM 88.9°F31.6°C 74.7°F23.7°C 63% 1.2 mph N1.9 kmh N 2.0 mph3.2 kmh 29.90 in1012.5 mb 0.00 in0.0 mm 0.00 in0.0 mm 0.03 in0.8 mm
02:29 PM 88.2°F31.2°C 74.1°F23.4°C 63% 0.9 mph NW1.4 kmh NW 1.8 mph2.9 kmh 29.90 in1012.5 mb 0.00 in0.0 mm 0.00 in0.0 mm 0.03 in0.8 mm
02:24 PM 87.8°F31.0°C 73.3°F22.9°C 62% 0.9 mph NNW1.4 kmh NNW 1.8 mph2.9 kmh 29.91 in1012.9 mb 0.00 in0.0 mm 0.00 in0.0 mm 0.03 in0.8 mm
02:19 PM 87.8°F31.0°C 73.7°F23.2°C 63% 1.8 mph SE2.9 kmh SE 1.8 mph2.9 kmh 29.91 in1012.9 mb 0.00 in0.0 mm 0.00 in0.0 mm 0.03 in0.8 mm
02:14 PM 88.0°F31.1°C 73.9°F23.3°C 63% 0.4 mph NW0.6 kmh NW 1.8 mph2.9 kmh 29.91 in1012.9 mb 0.00 in0.0 mm 0.00 in0.0 mm 0.03 in0.8 mm
02:09 PM 88.2°F31.2°C 74.1°F23.4°C 63% 0.4 mph NNW0.6 kmh NNW 1.8 mph2.9 kmh 29.91 in1012.9 mb 0.00 in0.0 mm 0.00 in0.0 mm 0.03 in0.8 mm
02:04 PM 88.2°F31.2°C 74.1°F23.4°C 63% 1.3 mph SSW2.1 kmh SSW 1.8 mph2.9 kmh 29.92 in1013.2 mb 0.00 in0.0 mm 0.00 in0.0 mm 0.03 in0.8 mm
01:59 PM 87.7°F30.9°C 74.0°F23.3°C 64% 1.1 mph NW1.8 kmh NW 1.1 mph1.8 kmh 29.92 in1013.2 mb 0.00 in0.0 mm 0.00 in0.0 mm 0.03 in0.8 mm
01:54 PM 87.5°F30.8°C 73.8°F23.2°C 64% 0.3 mph WNW0.5 kmh WNW 1.6 mph2.6 kmh 29.92 in1013.2 mb 0.00 in0.0 mm 0.00 in0.0 mm 0.03 in0.8 mm
01:49 PM 87.3°F30.7°C 74.1°F23.4°C 65% 1.3 mph W2.1 kmh W 2.2 mph3.5 kmh 29.92 in1013.2 mb 0.00 in0.0 mm 0.00 in0.0 mm 0.03 in0.8 mm
01:44 PM 87.5°F30.8°C 74.3°F23.5°C 65% 0.7 mph NW1.1 kmh NW 2.2 mph3.5 kmh 29.92 in1013.2 mb 0.00 in0.0 mm 0.00 in0.0 mm 0.03 in0.8 mm
01:39 PM 87.5°F30.8°C 74.3°F23.5°C 65% 0.4 mph NNE0.6 kmh NNE 0.7 mph1.1 kmh 29.92 in1013.2 mb 0.00 in0.0 mm 0.00 in0.0 mm 0.03 in0.8 mm
01:34 PM 87.5°F30.8°C 74.3°F23.5°C 65% Calm Calm 1.1 mph1.8 kmh 29.93 in1013.5 mb 0.00 in0.0 mm 0.00 in0.0 mm 0.03 in0.8 mm
01:29 PM 87.5°F30.8°C 74.7°F23.7°C 66% 1.1 mph NNE1.8 kmh NNE 1.8 mph2.9 kmh 29.93 in1013.5 mb 0.00 in0.0 mm 0.00 in0.0 mm 0.03 in0.8 mm
01:24 PM 87.3°F30.7°C 75.0°F23.9°C 67% 1.8 mph WSW2.9 kmh WSW 2.5 mph4.0 kmh 29.93 in1013.5 mb 0.00 in0.0 mm 0.00 in0.0 mm 0.03 in0.8 mm
01:19 PM 86.8°F30.4°C 75.0°F23.9°C 68% 1.3 mph WNW2.1 kmh WNW 2.5 mph4.0 kmh 29.93 in1013.5 mb 0.00 in0.0 mm 0.00 in0.0 mm 0.03 in0.8 mm
01:14 PM 86.4°F30.2°C 75.1°F23.9°C 69% 1.1 mph NW1.8 kmh NW 1.8 mph2.9 kmh 29.94 in1013.9 mb 0.00 in0.0 mm 0.00 in0.0 mm 0.03 in0.8 mm
01:09 PM 86.0°F30.0°C 74.8°F23.8°C 69% 1.0 mph NNW1.6 kmh NNW 1.1 mph1.8 kmh 29.94 in1013.9 mb 0.00 in0.0 mm 0.00 in0.0 mm 0.03 in0.8 mm
01:04 PM 86.0°F30.0°C 74.8°F23.8°C 69% 0.4 mph NW0.6 kmh NW 1.1 mph1.8 kmh 29.94 in1013.9 mb 0.00 in0.0 mm 0.00 in0.0 mm 0.03 in0.8 mm
12:59 PM 86.0°F30.0°C 73.8°F23.2°C 67% 0.6 mph SE1.0 kmh SE 1.3 mph2.1 kmh 29.94 in1013.9 mb 0.00 in0.0 mm 0.00 in0.0 mm 0.03 in0.8 mm
12:54 PM 86.0°F30.0°C 74.8°F23.8°C 69% 1.1 mph NW1.8 kmh NW 1.3 mph2.1 kmh 29.94 in1013.9 mb 0.00 in0.0 mm 0.00 in0.0 mm 0.03 in0.8 mm
12:49 PM 86.4°F30.2°C 75.6°F24.2°C 70% 1.3 mph WSW2.1 kmh WSW 1.3 mph2.1 kmh 29.95 in1014.2 mb 0.00 in0.0 mm 0.00 in0.0 mm 0.03 in0.8 mm
12:44 PM 86.0°F30.0°C 75.2°F24.0°C 70% 0.4 mph SSE0.6 kmh SSE 0.7 mph1.1 kmh 29.94 in1013.9 mb 0.00 in0.0 mm 0.00 in0.0 mm 0.03 in0.8 mm
12:39 PM 85.7°F29.8°C 75.2°F24.0°C 71% 0.6 mph W1.0 kmh W 1.1 mph1.8 kmh 29.95 in1014.2 mb 0.00 in0.0 mm 0.00 in0.0 mm 0.03 in0.8 mm
12:34 PM 85.0°F29.4°C 75.0°F23.9°C 72% Calm Calm 1.1 mph1.8 kmh 29.95 in1014.2 mb 0.00 in0.0 mm 0.00 in0.0 mm 0.03 in0.8 mm
12:29 PM 84.6°F29.2°C 75.0°F23.9°C 73% 1.1 mph W1.8 kmh W 1.3 mph2.1 kmh 29.95 in1014.2 mb 0.00 in0.0 mm 0.00 in0.0 mm 0.03 in0.8 mm
12:24 PM 84.2°F29.0°C 74.6°F23.7°C 73% 0.7 mph NNW1.1 kmh NNW 1.3 mph2.1 kmh 29.95 in1014.2 mb 0.00 in0.0 mm 0.00 in0.0 mm 0.03 in0.8 mm
12:19 PM 83.9°F28.8°C 74.3°F23.5°C 73% 1.2 mph NW1.9 kmh NW 1.3 mph2.1 kmh 29.95 in1014.2 mb 0.00 in0.0 mm 0.00 in0.0 mm 0.03 in0.8 mm
12:14 PM 83.7°F28.7°C 74.5°F23.6°C 74% 0.9 mph 1.4 kmh 1.1 mph1.8 kmh 29.95 in1014.2 mb 0.00 in0.0 mm 0.00 in0.0 mm 0.03 in0.8 mm
12:09 PM 83.3°F28.5°C 75.0°F23.9°C 76% 0.9 mph WSW1.4 kmh WSW 1.6 mph2.6 kmh 29.95 in1014.2 mb 0.00 in0.0 mm 0.00 in0.0 mm 0.03 in0.8 mm
12:04 PM 82.8°F28.2°C 74.1°F23.4°C 75% 0.6 mph NW1.0 kmh NW 1.6 mph2.6 kmh 29.95 in1014.2 mb 0.00 in0.0 mm 0.00 in0.0 mm 0.03 in0.8 mm
11:59 AM 82.6°F28.1°C 74.3°F23.5°C 76% 1.0 mph NE1.6 kmh NE 1.6 mph2.6 kmh 29.95 in1014.2 mb 0.00 in0.0 mm 0.00 in0.0 mm 0.03 in0.8 mm
11:54 AM 82.4°F28.0°C 74.2°F23.4°C 76% 0.6 mph W1.0 kmh W 0.9 mph1.4 kmh 29.95 in1014.2 mb 0.00 in0.0 mm 0.00 in0.0 mm 0.03 in0.8 mm
11:49 AM 82.4°F28.0°C 75.0°F23.9°C 78% 0.4 mph NW0.6 kmh NW 0.9 mph1.4 kmh 29.95 in1014.2 mb 0.00 in0.0 mm 0.00 in0.0 mm 0.03 in0.8 mm
11:44 AM 82.3°F27.9°C 75.2°F24.0°C 79% 0.7 mph NNW1.1 kmh NNW 0.7 mph1.1 kmh 29.95 in1014.2 mb 0.00 in0.0 mm 0.00 in0.0 mm 0.03 in0.8 mm
11:39 AM 82.3°F27.9°C 74.8°F23.8°C 78% 0.2 mph NW0.3 kmh NW 1.8 mph2.9 kmh 29.96 in1014.6 mb 0.00 in0.0 mm 0.00 in0.0 mm 0.03 in0.8 mm
11:34 AM 82.1°F27.8°C 75.0°F23.9°C 79% 0.4 mph WNW0.6 kmh WNW 1.8 mph2.9 kmh 29.96 in1014.6 mb 0.00 in0.0 mm 0.00 in0.0 mm 0.03 in0.8 mm
11:29 AM 81.7°F27.6°C 74.6°F23.7°C 79% 1.0 mph N1.6 kmh N 1.8 mph2.9 kmh 29.96 in1014.6 mb 0.00 in0.0 mm 0.00 in0.0 mm 0.03 in0.8 mm
11:24 AM 81.7°F27.6°C 74.6°F23.7°C 79% 0.4 mph NNW0.6 kmh NNW 0.4 mph0.6 kmh 29.96 in1014.6 mb 0.00 in0.0 mm 0.00 in0.0 mm 0.03 in0.8 mm
11:19 AM 81.7°F27.6°C 75.4°F24.1°C 81% 0.2 mph ESE0.3 kmh ESE 1.1 mph1.8 kmh 29.96 in1014.6 mb 0.00 in0.0 mm 0.00 in0.0 mm 0.03 in0.8 mm
11:14 AM 81.4°F27.4°C 74.7°F23.7°C 80% 0.2 mph ESE0.3 kmh ESE 1.1 mph1.8 kmh 29.96 in1014.6 mb 0.00 in0.0 mm 0.00 in0.0 mm 0.03 in0.8 mm
11:09 AM 81.5°F27.5°C 75.3°F24.1°C 81% Calm Calm 0.7 mph1.1 kmh 29.97 in1014.9 mb 0.00 in0.0 mm 0.00 in0.0 mm 0.03 in0.8 mm
11:04 AM 81.9°F27.7°C 75.2°F24.0°C 80% Calm Calm 1.1 mph1.8 kmh 29.97 in1014.9 mb 0.00 in0.0 mm 0.00 in0.0 mm 0.03 in0.8 mm
10:59 AM 82.1°F27.8°C 76.2°F24.6°C 82% 0.6 mph NW1.0 kmh NW 1.1 mph1.8 kmh 29.97 in1014.9 mb 0.00 in0.0 mm 0.00 in0.0 mm 0.03 in0.8 mm
10:54 AM 82.1°F27.8°C 76.2°F24.6°C 82% 1.0 mph NNW1.6 kmh NNW 1.1 mph1.8 kmh 29.97 in1014.9 mb 0.00 in0.0 mm 0.00 in0.0 mm 0.03 in0.8 mm
10:49 AM 81.7°F27.6°C 76.1°F24.5°C 83% Calm Calm 0.4 mph0.6 kmh 29.97 in1014.9 mb 0.00 in0.0 mm 0.00 in0.0 mm 0.03 in0.8 mm
10:44 AM 80.3°F26.8°C 75.3°F24.1°C 85% 0.2 mph NW0.3 kmh NW 1.8 mph2.9 kmh 29.97 in1014.9 mb 0.00 in0.0 mm 0.00 in0.0 mm 0.03 in0.8 mm
10:39 AM 79.4°F26.3°C 74.9°F23.8°C 86% 0.7 mph NNW1.1 kmh NNW 1.8 mph2.9 kmh 29.97 in1014.9 mb 0.00 in0.0 mm 0.00 in0.0 mm 0.03 in0.8 mm
10:34 AM 78.5°F25.8°C 74.3°F23.5°C 87% 0.8 mph WSW1.3 kmh WSW 1.6 mph2.6 kmh 29.97 in1014.9 mb 0.00 in0.0 mm 0.00 in0.0 mm 0.03 in0.8 mm
10:29 AM 77.9°F25.5°C 73.8°F23.2°C 87% 0.7 mph NE1.1 kmh NE 1.1 mph1.8 kmh 29.98 in1015.2 mb 0.00 in0.0 mm 0.00 in0.0 mm 0.03 in0.8 mm
10:24 AM 77.6°F25.3°C 73.4°F23.0°C 87% 0.2 mph SE0.3 kmh SE 2.2 mph3.5 kmh 29.98 in1015.2 mb 0.00 in0.0 mm 0.00 in0.0 mm 0.03 in0.8 mm
10:19 AM 77.6°F25.3°C 73.4°F23.0°C 87% 0.2 mph ESE0.3 kmh ESE 2.2 mph3.5 kmh 29.98 in1015.2 mb 0.00 in0.0 mm 0.00 in0.0 mm 0.03 in0.8 mm
10:14 AM 77.4°F25.2°C 73.6°F23.1°C 88% 0.4 mph SW0.6 kmh SW 1.6 mph2.6 kmh 29.98 in1015.2 mb 0.00 in0.0 mm 0.00 in0.0 mm 0.03 in0.8 mm
10:09 AM 77.0°F25.0°C 73.6°F23.1°C 89% 0.5 mph WNW0.8 kmh WNW 1.6 mph2.6 kmh 29.98 in1015.2 mb 0.00 in0.0 mm 0.00 in0.0 mm 0.03 in0.8 mm
10:04 AM 76.9°F24.9°C 73.4°F23.0°C 89% Calm Calm 0.4 mph0.6 kmh 29.97 in1014.9 mb 0.00 in0.0 mm 0.00 in0.0 mm 0.03 in0.8 mm
09:59 AM 76.7°F24.8°C 73.3°F22.9°C 89% 0.4 mph NNW0.6 kmh NNW 0.9 mph1.4 kmh 29.97 in1014.9 mb 0.00 in0.0 mm 0.00 in0.0 mm 0.03 in0.8 mm
09:54 AM 76.3°F24.6°C 72.9°F22.7°C 89% 0.9 mph WNW1.4 kmh WNW 0.9 mph1.4 kmh 29.97 in1014.9 mb 0.00 in0.0 mm 0.00 in0.0 mm 0.03 in0.8 mm
09:49 AM 76.0°F24.4°C 72.9°F22.7°C 90% 0.7 mph WNW1.1 kmh WNW 1.3 mph2.1 kmh 29.97 in1014.9 mb 0.00 in0.0 mm 0.00 in0.0 mm 0.03 in0.8 mm
09:44 AM 75.6°F24.2°C 72.2°F22.3°C 89% Calm Calm 1.3 mph2.1 kmh 29.97 in1014.9 mb 0.00 in0.0 mm 0.00 in0.0 mm 0.03 in0.8 mm
09:39 AM 75.4°F24.1°C 72.0°F22.2°C 89% 0.4 mph SSE0.6 kmh SSE 1.1 mph1.8 kmh 29.97 in1014.9 mb 0.00 in0.0 mm 0.00 in0.0 mm 0.03 in0.8 mm
09:34 AM 75.2°F24.0°C 71.8°F22.1°C 89% Calm Calm 1.3 mph2.1 kmh 29.97 in1014.9 mb 0.00 in0.0 mm 0.00 in0.0 mm 0.03 in0.8 mm
09:29 AM 75.1°F23.9°C 71.6°F22.0°C 89% 1.3 mph ENE2.1 kmh ENE 1.3 mph2.1 kmh 29.97 in1014.9 mb 0.00 in0.0 mm 0.00 in0.0 mm 0.03 in0.8 mm
09:24 AM 74.7°F23.7°C 70.9°F21.6°C 88% Calm Calm 0.4 mph0.6 kmh 29.97 in1014.9 mb 0.00 in0.0 mm 0.00 in0.0 mm 0.03 in0.8 mm
09:19 AM 74.5°F23.6°C 70.7°F21.5°C 88% 0.2 mph NW0.3 kmh NW 0.4 mph0.6 kmh 29.97 in1014.9 mb 0.00 in0.0 mm 0.00 in0.0 mm 0.03 in0.8 mm
09:14 AM 74.3°F23.5°C 70.6°F21.4°C 88% Calm Calm 0.4 mph0.6 kmh 29.97 in1014.9 mb 0.00 in0.0 mm 0.00 in0.0 mm 0.03 in0.8 mm
09:09 AM 74.2°F23.4°C 70.1°F21.2°C 87% Calm Calm 1.1 mph1.8 kmh 29.97 in1014.9 mb 0.00 in0.0 mm 0.00 in0.0 mm 0.03 in0.8 mm
09:04 AM 73.8°F23.2°C 69.8°F21.0°C 87% 0.8 mph W1.3 kmh W 1.1 mph1.8 kmh 29.97 in1014.9 mb 0.00 in0.0 mm 0.00 in0.0 mm 0.03 in0.8 mm
08:58 AM 73.4°F23.0°C 69.4°F20.8°C 87% Calm Calm 1.1 mph1.8 kmh 29.97 in1014.9 mb 0.00 in0.0 mm 0.00 in0.0 mm 0.03 in0.8 mm
08:54 AM 73.1°F22.8°C 69.0°F20.6°C 87% 1.0 mph WNW1.6 kmh WNW 1.1 mph1.8 kmh 29.97 in1014.9 mb 0.00 in0.0 mm 0.00 in0.0 mm 0.03 in0.8 mm
08:49 AM 72.7°F22.6°C 68.7°F20.4°C 87% 0.6 mph N1.0 kmh N 0.7 mph1.1 kmh 29.97 in1014.9 mb 0.00 in0.0 mm 0.00 in0.0 mm 0.03 in0.8 mm
08:44 AM 72.4°F22.4°C 68.3°F20.2°C 87% 0.4 mph SE0.6 kmh SE 0.9 mph1.4 kmh 29.97 in1014.9 mb 0.03 in0.8 mm 0.00 in0.0 mm 0.03 in0.8 mm
08:39 AM 72.2°F22.3°C 68.1°F20.1°C 87% 0.4 mph NW0.6 kmh NW 1.1 mph1.8 kmh 29.97 in1014.9 mb 0.03 in0.8 mm 0.00 in0.0 mm 0.03 in0.8 mm
08:34 AM 71.8°F22.1°C 67.8°F19.9°C 87% 0.7 mph NW1.1 kmh NW 1.1 mph1.8 kmh 29.96 in1014.6 mb 0.03 in0.8 mm 0.00 in0.0 mm 0.03 in0.8 mm
08:29 AM 71.5°F21.9°C 67.4°F19.7°C 87% Calm Calm 0.9 mph1.4 kmh 29.97 in1014.9 mb 0.03 in0.8 mm 0.00 in0.0 mm 0.03 in0.8 mm
08:24 AM 71.1°F21.7°C 67.1°F19.5°C 87% 0.7 mph NNW1.1 kmh NNW 0.9 mph1.4 kmh 29.97 in1014.9 mb 0.03 in0.8 mm 0.00 in0.0 mm 0.03 in0.8 mm
08:19 AM 70.9°F21.6°C 66.9°F19.4°C 87% Calm Calm 0.7 mph1.1 kmh 29.97 in1014.9 mb 0.03 in0.8 mm 0.00 in0.0 mm 0.03 in0.8 mm
08:14 AM 70.7°F21.5°C 67.0°F19.4°C 88% 0.4 mph WNW0.6 kmh WNW 0.7 mph1.1 kmh 29.97 in1014.9 mb 0.03 in0.8 mm 0.00 in0.0 mm 0.03 in0.8 mm
08:09 AM 70.4°F21.3°C 66.6°F19.2°C 88% 0.4 mph W0.6 kmh W 1.1 mph1.8 kmh 29.97 in1014.9 mb 0.03 in0.8 mm 0.00 in0.0 mm 0.03 in0.8 mm
08:04 AM 70.2°F21.2°C 66.4°F19.1°C 88% 0.9 mph SW1.4 kmh SW 1.1 mph1.8 kmh 29.97 in1014.9 mb 0.03 in0.8 mm 0.00 in0.0 mm 0.03 in0.8 mm
07:58 AM 70.0°F21.1°C 66.2°F19.0°C 88% Calm Calm 0.4 mph0.6 kmh 29.96 in1014.6 mb 0.03 in0.8 mm 0.00 in0.0 mm 0.03 in0.8 mm
07:53 AM 70.0°F21.1°C 66.2°F19.0°C 88% 0.4 mph W0.6 kmh W 0.4 mph0.6 kmh 29.96 in1014.6 mb 0.03 in0.8 mm 0.36 in9.1 mm 0.03 in0.8 mm
07:48 AM 69.8°F21.0°C 66.1°F18.9°C 88% 0.2 mph WNW0.3 kmh WNW 0.4 mph0.6 kmh 29.96 in1014.6 mb 0.00 in0.0 mm 0.00 in0.0 mm 0.00 in0.0 mm
07:43 AM 69.8°F21.0°C 66.1°F18.9°C 88% 0.2 mph NNW0.3 kmh NNW 0.4 mph0.6 kmh 29.95 in1014.2 mb 0.00 in0.0 mm 0.00 in0.0 mm 0.00 in0.0 mm
07:39 AM 69.8°F21.0°C 66.1°F18.9°C 88% 0.4 mph 0.6 kmh 0.4 mph0.6 kmh 29.95 in1014.2 mb 0.00 in0.0 mm 0.00 in0.0 mm 0.00 in0.0 mm
07:34 AM 69.7°F20.9°C 65.9°F18.8°C 88% 0.4 mph NW0.6 kmh NW 0.4 mph0.6 kmh 29.95 in1014.2 mb 0.00 in0.0 mm 0.00 in0.0 mm 0.00 in0.0 mm
07:29 AM 69.5°F20.8°C 65.7°F18.7°C 88% Calm Calm -- 29.94 in1013.9 mb 0.00 in0.0 mm 0.00 in0.0 mm 0.00 in0.0 mm
07:24 AM 69.3°F20.7°C 65.6°F18.7°C 88% Calm Calm -- 29.94 in1013.9 mb 0.00 in0.0 mm 0.00 in0.0 mm 0.00 in0.0 mm
07:19 AM 69.1°F20.6°C 65.4°F18.6°C 88% Calm Calm -- 29.94 in1013.9 mb 0.00 in0.0 mm 0.00 in0.0 mm 0.00 in0.0 mm
07:14 AM 68.9°F20.5°C 65.3°F18.5°C 88% Calm Calm -- 29.94 in1013.9 mb 0.00 in0.0 mm 0.00 in0.0 mm 0.00 in0.0 mm
07:09 AM 68.6°F20.3°C 65.2°F18.4°C 89% Calm Calm -- 29.94 in1013.9 mb 0.00 in0.0 mm 0.00 in0.0 mm 0.00 in0.0 mm
07:04 AM 68.4°F20.2°C 65.0°F18.3°C 89% Calm Calm -- 29.94 in1013.9 mb 0.00 in0.0 mm 0.00 in0.0 mm 0.00 in0.0 mm
06:58 AM 68.4°F20.2°C 65.0°F18.3°C 89% Calm Calm -- 29.93 in1013.5 mb 0.00 in0.0 mm 0.00 in0.0 mm 0.00 in0.0 mm
06:53 AM 68.4°F20.2°C 65.0°F18.3°C 89% Calm Calm -- 29.93 in1013.5 mb 0.00 in0.0 mm 0.00 in0.0 mm 0.00 in0.0 mm
06:48 AM 68.2°F20.1°C 64.8°F18.2°C 89% Calm Calm -- 29.93 in1013.5 mb 0.00 in0.0 mm 0.00 in0.0 mm 0.00 in0.0 mm
06:43 AM 68.4°F20.2°C 65.0°F18.3°C 89% Calm Calm -- 29.93 in1013.5 mb 0.00 in0.0 mm 0.00 in0.0 mm 0.00 in0.0 mm
06:39 AM 68.4°F20.2°C 65.0°F18.3°C 89% Calm Calm -- 29.93 in1013.5 mb 0.00 in0.0 mm 0.00 in0.0 mm 0.00 in0.0 mm
06:34 AM 68.6°F20.3°C 65.2°F18.4°C 89% Calm Calm -- 29.93 in1013.5 mb 0.00 in0.0 mm 0.00 in0.0 mm 0.00 in0.0 mm
06:29 AM 68.6°F20.3°C 65.2°F18.4°C 89% Calm Calm -- 29.93 in1013.5 mb 0.00 in0.0 mm 0.00 in0.0 mm 0.00 in0.0 mm
06:24 AM 68.8°F20.4°C 65.3°F18.5°C 89% Calm Calm -- 29.93 in1013.5 mb 0.00 in0.0 mm 0.00 in0.0 mm 0.00 in0.0 mm
06:19 AM 68.8°F20.4°C 65.3°F18.5°C 89% Calm Calm -- 29.93 in1013.5 mb 0.00 in0.0 mm 0.00 in0.0 mm 0.00 in0.0 mm
06:14 AM 68.8°F20.4°C 65.3°F18.5°C 89% Calm Calm -- 29.93 in1013.5 mb 0.00 in0.0 mm 0.00 in0.0 mm 0.00 in0.0 mm
06:09 AM 68.8°F20.4°C 65.3°F18.5°C 89% Calm Calm -- 29.93 in1013.5 mb 0.00 in0.0 mm 0.00 in0.0 mm 0.00 in0.0 mm
06:04 AM 68.8°F20.4°C 65.3°F18.5°C 89% Calm Calm 0.2 mph0.3 kmh 29.93 in1013.5 mb 0.00 in0.0 mm 0.00 in0.0 mm 0.00 in0.0 mm
05:58 AM 68.8°F20.4°C 65.3°F18.5°C 89% Calm Calm 0.2 mph0.3 kmh 29.93 in1013.5 mb 0.00 in0.0 mm 0.00 in0.0 mm 0.00 in0.0 mm
05:53 AM 68.6°F20.3°C 65.2°F18.4°C 89% Calm Calm -- 29.93 in1013.5 mb 0.00 in0.0 mm 0.00 in0.0 mm 0.00 in0.0 mm
05:48 AM 68.4°F20.2°C 65.0°F18.3°C 89% Calm Calm -- 29.93 in1013.5 mb 0.00 in0.0 mm 0.00 in0.0 mm 0.00 in0.0 mm
05:43 AM 68.6°F20.3°C 65.2°F18.4°C 89% Calm Calm -- 29.92 in1013.2 mb 0.00 in0.0 mm 0.00 in0.0 mm 0.00 in0.0 mm
05:38 AM 68.4°F20.2°C 65.0°F18.3°C 89% Calm Calm -- 29.92 in1013.2 mb 0.00 in0.0 mm 0.00 in0.0 mm 0.00 in0.0 mm
05:34 AM 68.6°F20.3°C 65.2°F18.4°C 89% Calm Calm -- 29.92 in1013.2 mb 0.00 in0.0 mm 0.00 in0.0 mm 0.00 in0.0 mm
05:29 AM 68.6°F20.3°C 65.2°F18.4°C 89% Calm Calm -- 29.92 in1013.2 mb 0.00 in0.0 mm 0.00 in0.0 mm 0.00 in0.0 mm
05:24 AM 68.6°F20.3°C 65.2°F18.4°C 89% Calm Calm -- 29.92 in1013.2 mb 0.00 in0.0 mm 0.00 in0.0 mm 0.00 in0.0 mm
05:19 AM 68.6°F20.3°C 65.2°F18.4°C 89% Calm Calm -- 29.92 in1013.2 mb 0.00 in0.0 mm 0.00 in0.0 mm 0.00 in0.0 mm
05:14 AM 68.8°F20.4°C 65.3°F18.5°C 89% Calm Calm -- 29.92 in1013.2 mb 0.00 in0.0 mm 0.00 in0.0 mm 0.00 in0.0 mm
05:09 AM 68.8°F20.4°C 65.3°F18.5°C 89% Calm Calm -- 29.92 in1013.2 mb 0.00 in0.0 mm 0.00 in0.0 mm 0.00 in0.0 mm
05:04 AM 68.8°F20.4°C 65.3°F18.5°C 89% Calm Calm -- 29.92 in1013.2 mb 0.00 in0.0 mm 0.00 in0.0 mm 0.00 in0.0 mm
04:58 AM 68.8°F20.4°C 65.3°F18.5°C 89% Calm Calm -- 29.92 in1013.2 mb 0.00 in0.0 mm 0.00 in0.0 mm 0.00 in0.0 mm
04:53 AM 68.9°F20.5°C 65.5°F18.6°C 89% Calm Calm -- 29.92 in1013.2 mb 0.00 in0.0 mm 0.00 in0.0 mm 0.00 in0.0 mm
04:48 AM 68.9°F20.5°C 65.5°F18.6°C 89% Calm Calm -- 29.92 in1013.2 mb 0.00 in0.0 mm 0.00 in0.0 mm 0.00 in0.0 mm
04:43 AM 68.9°F20.5°C 65.5°F18.6°C 89% Calm Calm -- 29.92 in1013.2 mb 0.00 in0.0 mm 0.00 in0.0 mm 0.00 in0.0 mm
04:38 AM 68.9°F20.5°C 65.5°F18.6°C 89% Calm Calm -- 29.92 in1013.2 mb 0.00 in0.0 mm 0.00 in0.0 mm 0.00 in0.0 mm
04:33 AM 69.1°F20.6°C 65.7°F18.7°C 89% Calm Calm -- 29.92 in1013.2 mb 0.00 in0.0 mm 0.00 in0.0 mm 0.00 in0.0 mm
04:29 AM 68.9°F20.5°C 65.5°F18.6°C 89% Calm Calm -- 29.92 in1013.2 mb 0.00 in0.0 mm 0.00 in0.0 mm 0.00 in0.0 mm
04:24 AM 69.1°F20.6°C 65.7°F18.7°C 89% Calm Calm -- 29.92 in1013.2 mb 0.00 in0.0 mm 0.00 in0.0 mm 0.00 in0.0 mm
04:19 AM 69.1°F20.6°C 65.7°F18.7°C 89% Calm Calm -- 29.92 in1013.2 mb 0.00 in0.0 mm 0.00 in0.0 mm 0.00 in0.0 mm
04:14 AM 69.1°F20.6°C 65.7°F18.7°C 89% Calm Calm -- 29.93 in1013.5 mb 0.00 in0.0 mm 0.00 in0.0 mm 0.00 in0.0 mm
04:09 AM 69.1°F20.6°C 65.7°F18.7°C 89% Calm Calm -- 29.92 in1013.2 mb 0.00 in0.0 mm 0.00 in0.0 mm 0.00 in0.0 mm
04:04 AM 69.1°F20.6°C 65.7°F18.7°C 89% Calm Calm -- 29.92 in1013.2 mb 0.00 in0.0 mm 0.00 in0.0 mm 0.00 in0.0 mm
03:58 AM 69.1°F20.6°C 65.7°F18.7°C 89% Calm Calm -- 29.92 in1013.2 mb 0.00 in0.0 mm 0.00 in0.0 mm 0.00 in0.0 mm
03:53 AM 69.1°F20.6°C 65.7°F18.7°C 89% Calm Calm -- 29.92 in1013.2 mb 0.00 in0.0 mm 0.00 in0.0 mm 0.00 in0.0 mm
03:48 AM 69.1°F20.6°C 65.7°F18.7°C 89% Calm Calm -- 29.92 in1013.2 mb 0.00 in0.0 mm 0.00 in0.0 mm 0.00 in0.0 mm
03:43 AM 69.1°F20.6°C 65.7°F18.7°C 89% Calm Calm -- 29.92 in1013.2 mb 0.00 in0.0 mm 0.00 in0.0 mm 0.00 in0.0 mm
03:38 AM 69.3°F20.7°C 65.9°F18.8°C 89% Calm Calm -- 29.92 in1013.2 mb 0.00 in0.0 mm 0.00 in0.0 mm 0.00 in0.0 mm
03:33 AM 69.3°F20.7°C 65.9°F18.8°C 89% Calm Calm -- 29.93 in1013.5 mb 0.00 in0.0 mm 0.00 in0.0 mm 0.00 in0.0 mm
03:29 AM 69.3°F20.7°C 65.9°F18.8°C 89% Calm Calm -- 29.93 in1013.5 mb 0.00 in0.0 mm 0.00 in0.0 mm 0.00 in0.0 mm
03:24 AM 69.3°F20.7°C 65.9°F18.8°C 89% Calm Calm -- 29.93 in1013.5 mb 0.00 in0.0 mm 0.00 in0.0 mm 0.00 in0.0 mm
03:19 AM 69.3°F20.7°C 65.9°F18.8°C 89% Calm Calm -- 29.93 in1013.5 mb 0.00 in0.0 mm 0.00 in0.0 mm 0.00 in0.0 mm
03:14 AM 69.5°F20.8°C 66.1°F18.9°C 89% Calm Calm -- 29.93 in1013.5 mb 0.00 in0.0 mm 0.00 in0.0 mm 0.00 in0.0 mm
03:09 AM 69.5°F20.8°C 66.1°F18.9°C 89% Calm Calm -- 29.93 in1013.5 mb 0.00 in0.0 mm 0.00 in0.0 mm 0.00 in0.0 mm
03:04 AM 69.5°F20.8°C 66.1°F18.9°C 89% Calm Calm -- 29.93 in1013.5 mb 0.00 in0.0 mm 0.00 in0.0 mm 0.00 in0.0 mm
02:58 AM 69.5°F20.8°C 66.1°F18.9°C 89% Calm Calm -- 29.94 in1013.9 mb 0.00 in0.0 mm 0.00 in0.0 mm 0.00 in0.0 mm
02:53 AM 69.5°F20.8°C 66.1°F18.9°C 89% Calm Calm -- 29.94 in1013.9 mb 0.00 in0.0 mm 0.00 in0.0 mm 0.00 in0.0 mm
02:48 AM 69.5°F20.8°C 66.1°F18.9°C 89% Calm Calm 0.2 mph0.3 kmh 29.94 in1013.9 mb 0.00 in0.0 mm 0.00 in0.0 mm 0.00 in0.0 mm
02:43 AM 69.5°F20.8°C 66.1°F18.9°C 89% 0.2 mph NE0.3 kmh NE 0.2 mph0.3 kmh 29.94 in1013.9 mb 0.00 in0.0 mm 0.00 in0.0 mm 0.00 in0.0 mm
02:38 AM 69.7°F20.9°C 66.2°F19.0°C 89% Calm Calm -- 29.95 in1014.2 mb 0.00 in0.0 mm 0.00 in0.0 mm 0.00 in0.0 mm
02:33 AM 69.7°F20.9°C 66.2°F19.0°C 89% Calm Calm -- 29.94 in1013.9 mb 0.00 in0.0 mm 0.00 in0.0 mm 0.00 in0.0 mm
02:28 AM 69.7°F20.9°C 66.2°F19.0°C 89% Calm Calm -- 29.94 in1013.9 mb 0.00 in0.0 mm 0.00 in0.0 mm 0.00 in0.0 mm
02:23 AM 69.7°F20.9°C 66.6°F19.2°C 90% Calm Calm -- 29.94 in1013.9 mb 0.00 in0.0 mm 0.00 in0.0 mm 0.00 in0.0 mm
02:19 AM 69.7°F20.9°C 66.2°F19.0°C 89% Calm Calm -- 29.95 in1014.2 mb 0.00 in0.0 mm 0.00 in0.0 mm 0.00 in0.0 mm
02:14 AM 69.8°F21.0°C 66.4°F19.1°C 89% Calm Calm -- 29.95 in1014.2 mb 0.00 in0.0 mm 0.00 in0.0 mm 0.00 in0.0 mm
02:09 AM 69.8°F21.0°C 66.4°F19.1°C 89% Calm Calm -- 29.95 in1014.2 mb 0.00 in0.0 mm 0.00 in0.0 mm 0.00 in0.0 mm
02:04 AM 69.8°F21.0°C 66.4°F19.1°C 89% Calm Calm -- 29.95 in1014.2 mb 0.00 in0.0 mm 0.00 in0.0 mm 0.00 in0.0 mm
01:58 AM 70.0°F21.1°C 66.6°F19.2°C 89% Calm Calm -- 29.94 in1013.9 mb 0.00 in0.0 mm 0.00 in0.0 mm 0.00 in0.0 mm
01:53 AM 70.2°F21.2°C 66.8°F19.3°C 89% Calm Calm -- 29.94 in1013.9 mb 0.00 in0.0 mm 0.00 in0.0 mm 0.00 in0.0 mm
01:48 AM 70.2°F21.2°C 66.8°F19.3°C 89% Calm Calm -- 29.94 in1013.9 mb 0.00 in0.0 mm 0.00 in0.0 mm 0.00 in0.0 mm
01:43 AM 70.2°F21.2°C 66.8°F19.3°C 89% Calm Calm -- 29.94 in1013.9 mb 0.00 in0.0 mm 0.00 in0.0 mm 0.00 in0.0 mm
01:38 AM 70.4°F21.3°C 67.0°F19.4°C 89% Calm Calm -- 29.94 in1013.9 mb 0.00 in0.0 mm 0.00 in0.0 mm 0.00 in0.0 mm
01:33 AM 70.4°F21.3°C 67.0°F19.4°C 89% Calm Calm -- 29.94 in1013.9 mb 0.00 in0.0 mm 0.00 in0.0 mm 0.00 in0.0 mm
01:28 AM 70.4°F21.3°C 67.0°F19.4°C 89% Calm Calm -- 29.94 in1013.9 mb 0.00 in0.0 mm 0.00 in0.0 mm 0.00 in0.0 mm
01:23 AM 70.4°F21.3°C 67.0°F19.4°C 89% Calm Calm -- 29.94 in1013.9 mb 0.00 in0.0 mm 0.00 in0.0 mm 0.00 in0.0 mm
01:18 AM 70.4°F21.3°C 67.0°F19.4°C 89% Calm Calm -- 29.94 in1013.9 mb 0.00 in0.0 mm 0.00 in0.0 mm 0.00 in0.0 mm
01:13 AM 70.6°F21.4°C 67.1°F19.5°C 89% Calm Calm -- 29.94 in1013.9 mb 0.00 in0.0 mm 0.00 in0.0 mm 0.00 in0.0 mm
01:09 AM 70.6°F21.4°C 67.1°F19.5°C 89% Calm Calm -- 29.94 in1013.9 mb 0.00 in0.0 mm 0.00 in0.0 mm 0.00 in0.0 mm
01:04 AM 70.6°F21.4°C 67.1°F19.5°C 89% Calm Calm -- 29.94 in1013.9 mb 0.00 in0.0 mm 0.00 in0.0 mm 0.00 in0.0 mm
12:58 AM 70.6°F21.4°C 67.1°F19.5°C 89% Calm Calm 1.1 mph1.8 kmh 29.94 in1013.9 mb 0.00 in0.0 mm 0.00 in0.0 mm 0.00 in0.0 mm
12:53 AM 70.7°F21.5°C 67.3°F19.6°C 89% 0.4 mph SE0.6 kmh SE 1.1 mph1.8 kmh 29.94 in1013.9 mb 0.00 in0.0 mm 0.00 in0.0 mm 0.00 in0.0 mm
12:48 AM 70.7°F21.5°C 67.3°F19.6°C 89% Calm Calm 0.7 mph1.1 kmh 29.94 in1013.9 mb 0.00 in0.0 mm 0.00 in0.0 mm 0.00 in0.0 mm
12:43 AM 70.7°F21.5°C 67.3°F19.6°C 89% 0.7 mph NW1.1 kmh NW 0.7 mph1.1 kmh 29.94 in1013.9 mb 0.00 in0.0 mm 0.00 in0.0 mm 0.00 in0.0 mm
12:38 AM 70.7°F21.5°C 67.3°F19.6°C 89% 0.7 mph NW1.1 kmh NW 0.7 mph1.1 kmh 29.94 in1013.9 mb 0.00 in0.0 mm 0.00 in0.0 mm 0.00 in0.0 mm
12:33 AM 70.9°F21.6°C 67.5°F19.7°C 89% 0.4 mph NW0.6 kmh NW 0.4 mph0.6 kmh 29.94 in1013.9 mb 0.00 in0.0 mm 0.00 in0.0 mm 0.00 in0.0 mm
12:28 AM 70.9°F21.6°C 67.5°F19.7°C 89% 0.2 mph WNW0.3 kmh WNW 0.2 mph0.3 kmh 29.94 in1013.9 mb 0.00 in0.0 mm 0.00 in0.0 mm 0.00 in0.0 mm
12:23 AM 70.9°F21.6°C 67.5°F19.7°C 89% Calm Calm -- 29.94 in1013.9 mb 0.00 in0.0 mm 0.00 in0.0 mm 0.00 in0.0 mm
12:18 AM 70.9°F21.6°C 67.5°F19.7°C 89% Calm Calm -- 29.94 in1013.9 mb 0.00 in0.0 mm 0.00 in0.0 mm 0.00 in0.0 mm
12:13 AM 70.9°F21.6°C 67.5°F19.7°C 89% Calm Calm -- 29.95 in1014.2 mb 0.00 in0.0 mm 0.00 in0.0 mm 0.00 in0.0 mm
12:08 AM 70.9°F21.6°C 67.5°F19.7°C 89% Calm Calm -- 29.95 in1014.2 mb 0.00 in0.0 mm 0.00 in0.0 mm 0.00 in0.0 mm
12:04 AM 70.9°F21.6°C 67.5°F19.7°C 89% Calm Calm -- 29.95 in1014.2 mb 0.00 in0.0 mm 0.00 in0.0 mm 0.00 in0.0 mm